createdAt,value
2023-08-14T00:01:09.237Z,56.57
2023-08-14T00:03:35.709Z,56.59
2023-08-14T00:06:02.087Z,56.54
2023-08-14T00:08:28.456Z,56.55
2023-08-14T00:10:55.077Z,56.61
2023-08-14T00:13:21.638Z,56.39
2023-08-14T00:15:48.427Z,56.33
2023-08-14T00:18:14.806Z,56.30
2023-08-14T00:20:41.166Z,56.34
2023-08-14T00:23:07.517Z,56.29
2023-08-14T00:25:33.873Z,56.37
2023-08-14T00:28:00.695Z,56.41
2023-08-14T00:30:27.047Z,56.64
2023-08-14T00:32:53.506Z,56.54
2023-08-14T00:35:19.960Z,56.51
2023-08-14T00:37:46.872Z,56.45
2023-08-14T00:40:13.651Z,56.53
2023-08-14T00:42:40.163Z,56.53
2023-08-14T00:45:07.018Z,56.55
2023-08-14T00:47:34.125Z,56.51
2023-08-14T00:50:00.489Z,56.55
2023-08-14T00:52:27.294Z,56.54
2023-08-14T00:54:53.687Z,56.55
2023-08-14T00:57:20.281Z,56.70
2023-08-14T00:59:47.407Z,56.66
2023-08-14T01:02:14.145Z,56.58
2023-08-14T01:04:40.780Z,56.68
2023-08-14T01:07:07.145Z,56.44
2023-08-14T01:09:33.687Z,56.45
2023-08-14T01:12:10.909Z,56.66
2023-08-14T01:14:37.354Z,56.50
2023-08-14T01:17:06.469Z,56.62
2023-08-14T01:19:34.229Z,56.58
2023-08-14T01:22:05.519Z,56.40
2023-08-14T01:24:37.706Z,56.52
2023-08-14T01:27:04.107Z,56.46
2023-08-14T01:29:34.420Z,56.39
2023-08-14T01:32:00.835Z,56.58
2023-08-14T01:34:27.207Z,56.60
2023-08-14T01:36:59.675Z,56.49
2023-08-14T01:39:27.541Z,56.41
2023-08-14T01:42:00.223Z,56.36
2023-08-14T01:44:26.640Z,56.31
2023-08-14T01:46:53.971Z,56.54
2023-08-14T01:49:20.352Z,56.58
2023-08-14T01:51:46.906Z,56.63
2023-08-14T01:54:13.299Z,56.49
2023-08-14T01:56:39.653Z,56.44
2023-08-14T01:59:06.025Z,56.84
2023-08-14T02:01:32.426Z,56.49
2023-08-14T02:03:58.928Z,56.69
2023-08-14T02:06:25.358Z,56.45
2023-08-14T02:08:51.721Z,56.62
2023-08-14T02:11:18.327Z,56.63
2023-08-14T02:13:44.697Z,56.53
2023-08-14T02:16:11.154Z,56.73
2023-08-14T02:18:37.795Z,56.70
2023-08-14T02:21:04.169Z,56.72
2023-08-14T02:23:30.562Z,56.57
2023-08-14T02:25:57.003Z,56.82
2023-08-14T02:28:23.406Z,56.75
2023-08-14T02:30:49.816Z,56.89
2023-08-14T02:33:16.176Z,56.59
2023-08-14T02:35:42.530Z,56.84
2023-08-14T02:38:09.000Z,56.57
2023-08-14T02:40:35.355Z,56.58
2023-08-14T02:43:02.806Z,56.93
2023-08-14T02:45:29.530Z,56.65
2023-08-14T02:47:56.013Z,56.48
2023-08-14T02:50:25.735Z,56.73
2023-08-14T02:52:52.109Z,56.73
2023-08-14T02:55:18.506Z,56.60
2023-08-14T02:57:44.887Z,56.64
2023-08-14T03:00:11.408Z,56.75
2023-08-14T03:02:37.964Z,56.69
2023-08-14T03:05:04.565Z,56.81
2023-08-14T03:07:31.186Z,56.78
2023-08-14T03:09:57.651Z,56.73
2023-08-14T03:12:24.035Z,56.58
2023-08-14T03:14:50.513Z,56.74
2023-08-14T03:17:17.112Z,56.61
2023-08-14T03:19:43.484Z,56.77
2023-08-14T03:22:09.850Z,56.82
2023-08-14T03:24:36.248Z,56.73
2023-08-14T03:27:02.643Z,56.58
2023-08-14T03:29:29.470Z,56.74
2023-08-14T03:31:55.845Z,56.84
2023-08-14T03:34:22.257Z,56.73
2023-08-14T03:36:48.647Z,56.70
2023-08-14T03:39:15.024Z,56.80
2023-08-14T03:41:41.430Z,57.01
2023-08-14T03:44:07.828Z,57.09
2023-08-14T03:46:34.275Z,56.82
2023-08-14T03:49:00.694Z,57.05
2023-08-14T03:51:27.103Z,56.84
2023-08-14T03:53:53.450Z,57.11
2023-08-14T03:56:20.047Z,56.93
2023-08-14T03:58:46.476Z,57.03
2023-08-14T04:01:12.852Z,57.19
2023-08-14T04:03:39.673Z,57.10
2023-08-14T04:06:06.165Z,57.16
2023-08-14T04:08:32.770Z,57.12
2023-08-14T04:10:59.249Z,57.18
2023-08-14T04:13:26.001Z,57.13
2023-08-14T04:15:52.400Z,56.94
2023-08-14T04:18:18.794Z,56.91
2023-08-14T04:20:45.185Z,56.99
2023-08-14T04:23:11.951Z,57.07
2023-08-14T04:25:38.349Z,57.30
2023-08-14T04:28:04.872Z,57.33
2023-08-14T04:30:31.250Z,57.24
2023-08-14T04:32:58.039Z,57.40
2023-08-14T04:35:27.230Z,57.24
2023-08-14T04:37:55.035Z,57.26
2023-08-14T04:40:21.408Z,57.42
2023-08-14T04:42:47.952Z,57.50
2023-08-14T04:45:14.301Z,57.70
2023-08-14T04:47:40.740Z,57.40
2023-08-14T04:50:07.377Z,57.69
2023-08-14T04:52:33.741Z,57.81
2023-08-14T04:55:00.179Z,57.82
2023-08-14T04:57:26.566Z,57.47
2023-08-14T04:59:52.923Z,57.68
2023-08-14T05:02:19.549Z,57.81
2023-08-14T05:04:47.428Z,57.71
2023-08-14T05:07:13.816Z,57.59
2023-08-14T05:09:40.176Z,57.87
2023-08-14T05:12:06.673Z,57.61
2023-08-14T05:14:33.115Z,57.94
2023-08-14T05:16:59.475Z,57.93
2023-08-14T05:19:25.846Z,57.71
2023-08-14T05:21:52.212Z,57.84
2023-08-14T05:24:18.590Z,57.90
2023-08-14T05:26:44.948Z,57.82
2023-08-14T05:29:11.423Z,57.97
2023-08-14T05:31:37.931Z,59.23
2023-08-14T05:34:04.494Z,59.03
2023-08-14T05:36:30.874Z,58.47
2023-08-14T05:38:57.267Z,59.10
2023-08-14T05:41:23.710Z,59.15
2023-08-14T05:43:50.158Z,58.92
2023-08-14T05:46:16.559Z,59.38
2023-08-14T05:48:42.917Z,59.22
2023-08-14T05:51:09.344Z,59.12
2023-08-14T05:53:35.692Z,58.93
2023-08-14T05:56:02.041Z,58.99
2023-08-14T05:58:28.427Z,58.75
2023-08-14T06:00:54.907Z,59.39
2023-08-14T06:03:33.112Z,59.07
2023-08-14T06:06:08.625Z,58.98
2023-08-14T06:08:35.645Z,59.36
2023-08-14T06:11:02.824Z,59.19
2023-08-14T06:13:29.175Z,59.29
2023-08-14T06:15:55.740Z,58.89
2023-08-14T06:18:22.136Z,59.46
2023-08-14T06:20:48.516Z,59.28
2023-08-14T06:23:15.054Z,59.48
2023-08-14T06:25:41.413Z,59.33
2023-08-14T06:28:07.840Z,59.11
2023-08-14T06:30:34.240Z,59.08
2023-08-14T06:33:01.665Z,59.69
2023-08-14T06:35:28.072Z,59.73
2023-08-14T06:37:54.438Z,59.56
2023-08-14T06:40:20.834Z,58.72
2023-08-14T06:42:47.233Z,58.01
2023-08-14T06:45:13.597Z,57.58
2023-08-14T06:47:43.666Z,57.46
2023-08-14T06:50:10.097Z,56.99
2023-08-14T06:52:36.482Z,57.12
2023-08-14T06:55:02.829Z,56.98
2023-08-14T06:57:29.236Z,57.03
2023-08-14T06:59:55.648Z,56.89
2023-08-14T07:02:22.008Z,56.65
2023-08-14T07:04:48.395Z,55.96
2023-08-14T07:07:14.811Z,56.16
2023-08-14T07:09:41.416Z,56.30
2023-08-14T07:12:07.850Z,56.00
2023-08-14T07:14:34.218Z,55.87
2023-08-14T07:17:00.893Z,55.86
2023-08-14T07:19:27.252Z,55.82
2023-08-14T07:21:53.606Z,56.48
2023-08-14T07:24:19.957Z,56.32
2023-08-14T07:26:46.315Z,56.14
2023-08-14T07:29:12.693Z,56.15
2023-08-14T07:31:39.046Z,56.31
2023-08-14T07:34:05.862Z,56.25
2023-08-14T07:36:32.218Z,56.20
2023-08-14T07:38:58.611Z,56.48
2023-08-14T07:41:25.046Z,56.32
2023-08-14T07:43:51.413Z,56.56
2023-08-14T07:46:19.149Z,56.51
2023-08-14T07:48:45.700Z,56.28
2023-08-14T07:51:12.068Z,56.25
2023-08-14T07:53:38.488Z,56.65
2023-08-14T07:56:04.911Z,56.22
2023-08-14T07:58:31.300Z,56.54
2023-08-14T08:00:57.649Z,56.43
2023-08-14T08:03:24.004Z,56.25
2023-08-14T08:05:50.382Z,56.42
2023-08-14T08:08:16.762Z,56.38
2023-08-14T08:10:43.116Z,56.63
2023-08-14T08:13:09.502Z,56.75
2023-08-14T08:15:35.897Z,56.34
2023-08-14T08:18:02.333Z,56.27
2023-08-14T08:20:29.125Z,56.53
2023-08-14T08:22:55.638Z,56.67
2023-08-14T08:25:22.032Z,56.70
2023-08-14T08:27:48.421Z,56.43
2023-08-14T08:30:14.775Z,56.48
2023-08-14T08:32:41.338Z,56.65
2023-08-14T08:35:07.995Z,56.88
2023-08-14T08:37:34.348Z,56.76
2023-08-14T08:40:00.702Z,56.74
2023-08-14T08:42:27.207Z,56.60
2023-08-14T08:44:54.023Z,56.54
2023-08-14T08:47:21.875Z,56.29
2023-08-14T08:49:48.412Z,56.26
2023-08-14T08:52:14.768Z,56.47
2023-08-14T08:54:41.134Z,56.31
2023-08-14T08:57:07.651Z,56.25
2023-08-14T08:59:34.210Z,56.45
2023-08-14T09:02:00.656Z,56.35
2023-08-14T09:04:27.195Z,56.11
2023-08-14T09:06:53.840Z,55.86
2023-08-14T09:09:20.226Z,56.35
2023-08-14T09:11:46.620Z,56.11
2023-08-14T09:14:13.717Z,56.49
2023-08-14T09:16:41.325Z,56.26
2023-08-14T09:19:07.688Z,56.52
2023-08-14T09:21:34.053Z,56.45
2023-08-14T09:24:00.494Z,56.45
2023-08-14T09:26:26.965Z,56.67
2023-08-14T09:28:53.368Z,56.68
2023-08-14T09:31:19.747Z,56.47
2023-08-14T09:33:46.173Z,56.80
2023-08-14T09:36:12.995Z,56.73
2023-08-14T09:38:39.438Z,56.81
2023-08-14T09:41:05.912Z,57.30
2023-08-14T09:43:32.549Z,56.58
2023-08-14T09:45:59.888Z,56.72
2023-08-14T09:48:42.325Z,56.63
2023-08-14T09:51:12.693Z,56.36
2023-08-14T09:53:43.438Z,56.42
2023-08-14T09:56:10.351Z,56.40
2023-08-14T09:58:36.740Z,56.16
2023-08-14T10:01:03.166Z,56.40
2023-08-14T10:03:29.694Z,56.27
2023-08-14T10:05:56.092Z,56.41
2023-08-14T10:08:22.549Z,56.00
2023-08-14T10:11:05.478Z,56.47
2023-08-14T10:13:36.740Z,56.49
2023-08-14T10:16:03.877Z,56.67
2023-08-14T10:18:30.647Z,56.57
2023-08-14T10:20:57.028Z,57.47
2023-08-14T10:23:23.424Z,58.51
2023-08-14T10:25:51.664Z,58.65
2023-08-14T10:28:20.344Z,58.00
2023-08-14T10:30:46.861Z,58.33
2023-08-14T10:33:13.732Z,58.33
2023-08-14T10:35:50.119Z,58.24
2023-08-14T10:38:18.301Z,57.89
2023-08-14T10:40:55.776Z,57.80
2023-08-14T10:43:24.516Z,57.78
2023-08-14T10:45:52.053Z,58.08
2023-08-14T10:48:20.505Z,58.30
2023-08-14T10:50:50.150Z,58.33
2023-08-14T10:53:16.746Z,58.29
2023-08-14T10:55:45.248Z,58.14
2023-08-14T10:58:30.210Z,58.45
2023-08-14T11:00:56.768Z,58.91
2023-08-14T11:03:23.483Z,58.63
2023-08-14T11:05:50.662Z,58.19
2023-08-14T11:08:17.477Z,58.25
2023-08-14T11:10:44.085Z,57.33
2023-08-14T11:13:10.575Z,58.15
2023-08-14T11:15:37.340Z,57.10
2023-08-14T11:18:06.501Z,56.92
2023-08-14T11:20:33.126Z,56.11
2023-08-14T11:23:02.373Z,56.95
2023-08-14T11:25:29.081Z,56.97
2023-08-14T11:27:55.726Z,57.39
2023-08-14T11:32:53.278Z,57.57
2023-08-14T11:35:19.731Z,57.03
2023-08-14T11:37:47.905Z,57.42
2023-08-14T11:40:16.710Z,57.14
2023-08-14T11:42:43.837Z,56.60
2023-08-14T11:45:10.669Z,57.32
2023-08-14T11:47:37.755Z,57.01
2023-08-14T11:50:04.789Z,57.01
2023-08-14T11:52:31.161Z,56.70
2023-08-14T11:54:57.524Z,57.29
2023-08-14T11:57:24.464Z,57.53
2023-08-14T11:59:50.858Z,57.02
2023-08-14T12:02:18.380Z,57.26
2023-08-14T12:04:45.037Z,57.42
2023-08-14T12:07:11.439Z,57.27
2023-08-14T12:09:39.476Z,57.60
2023-08-14T12:12:05.972Z,57.72
2023-08-14T12:14:39.102Z,58.32
2023-08-14T12:17:16.392Z,57.96
2023-08-14T12:19:48.340Z,57.56
2023-08-14T12:22:14.696Z,57.70
2023-08-14T12:24:41.486Z,58.23
2023-08-14T12:27:14.660Z,57.97
2023-08-14T12:29:41.047Z,58.70
2023-08-14T12:32:07.466Z,58.19
2023-08-14T12:34:33.864Z,58.06
2023-08-14T12:37:00.494Z,58.55
2023-08-14T12:39:26.867Z,57.85
2023-08-14T12:41:55.726Z,58.58
2023-08-14T12:44:22.121Z,58.67
2023-08-14T12:46:48.568Z,58.00
2023-08-14T12:49:14.953Z,58.64
2023-08-14T12:51:42.641Z,59.99
2023-08-14T12:54:10.533Z,58.91
2023-08-14T12:56:37.959Z,58.99
2023-08-14T12:59:04.512Z,58.41
2023-08-14T13:01:30.922Z,58.99
2023-08-14T13:03:59.127Z,58.89
2023-08-14T13:06:29.612Z,59.28
2023-08-14T13:08:55.989Z,58.86
2023-08-14T13:11:22.387Z,59.03
2023-08-14T13:13:49.516Z,59.26
2023-08-14T13:16:16.278Z,59.94
2023-08-14T13:18:42.704Z,59.67
2023-08-14T13:21:09.066Z,59.43
2023-08-14T13:23:35.434Z,59.60
2023-08-14T13:26:01.828Z,59.28
2023-08-14T13:28:28.352Z,59.40
2023-08-14T13:30:54.750Z,59.36
2023-08-14T13:33:21.159Z,59.52
2023-08-14T13:35:47.553Z,59.72
2023-08-14T13:38:13.969Z,60.98
2023-08-14T13:40:40.365Z,60.06
2023-08-14T13:43:06.730Z,59.94
2023-08-14T13:45:33.107Z,60.62
2023-08-14T13:47:59.827Z,59.77
2023-08-14T13:50:32.714Z,60.24
2023-08-14T13:53:00.214Z,60.26
2023-08-14T13:55:27.742Z,60.70
2023-08-14T13:57:56.730Z,60.45
2023-08-14T14:00:28.075Z,60.69
2023-08-14T14:02:56.241Z,60.88
2023-08-14T14:05:22.758Z,60.40
2023-08-14T14:10:17.472Z,61.29
2023-08-14T14:12:59.722Z,62.15
2023-08-14T14:15:28.532Z,62.50
2023-08-14T14:17:55.016Z,65.27
2023-08-14T14:20:21.392Z,66.27
2023-08-14T14:22:47.749Z,65.06
2023-08-14T14:25:14.329Z,64.58
2023-08-14T14:27:40.781Z,64.51
2023-08-14T14:30:07.421Z,64.98
2023-08-14T14:32:33.837Z,70.62
2023-08-14T14:35:00.288Z,71.09
2023-08-14T14:37:26.708Z,68.13
2023-08-14T14:39:53.122Z,68.53
2023-08-14T14:42:22.865Z,68.36
2023-08-14T14:44:50.581Z,69.04
2023-08-14T14:47:17.245Z,68.57
2023-08-14T14:49:43.784Z,67.27
2023-08-14T14:52:10.165Z,66.93
2023-08-14T14:54:36.540Z,66.21
2023-08-14T14:57:02.937Z,66.74
2023-08-14T14:59:29.315Z,67.57
2023-08-14T15:01:55.690Z,67.02
2023-08-14T15:04:22.052Z,66.56
2023-08-14T15:06:48.703Z,66.82
2023-08-14T15:09:15.073Z,66.80
2023-08-14T15:11:41.453Z,66.42
2023-08-14T15:14:07.936Z,65.67
2023-08-14T15:16:34.418Z,66.18
2023-08-14T15:19:00.795Z,66.53
2023-08-14T15:21:27.150Z,66.45
2023-08-14T15:23:53.631Z,66.73
2023-08-14T15:26:20.378Z,66.17
2023-08-14T15:28:47.100Z,66.15
2023-08-14T15:31:13.489Z,66.53
2023-08-14T15:33:39.873Z,66.79
2023-08-14T15:36:06.317Z,65.91
2023-08-14T15:38:32.738Z,67.13
2023-08-14T15:40:59.096Z,66.46
2023-08-14T15:43:25.583Z,67.10
2023-08-14T15:46:01.730Z,67.01
2023-08-14T15:48:28.399Z,66.85
2023-08-14T15:50:54.776Z,66.80
2023-08-14T15:53:21.129Z,67.44
2023-08-14T15:55:47.528Z,67.22
2023-08-14T15:58:14.247Z,68.10
2023-08-14T16:00:40.599Z,67.62
2023-08-14T16:03:07.774Z,69.19
2023-08-14T16:05:34.311Z,68.10
2023-08-14T16:08:00.690Z,68.23
2023-08-14T16:10:27.078Z,67.36
2023-08-14T16:12:53.455Z,67.55
2023-08-14T16:15:19.830Z,67.68
2023-08-14T16:17:46.288Z,67.87
2023-08-14T16:20:13.377Z,68.49
2023-08-14T16:22:40.234Z,68.83
2023-08-14T16:25:07.061Z,68.49
2023-08-14T16:27:33.411Z,69.03
2023-08-14T16:29:59.887Z,68.26
2023-08-14T16:32:26.325Z,68.26
2023-08-14T16:34:52.695Z,68.01
2023-08-14T16:37:19.525Z,69.61
2023-08-14T16:39:46.117Z,68.84
2023-08-14T16:42:12.561Z,68.98
2023-08-14T16:44:38.925Z,68.97
2023-08-14T16:47:05.326Z,69.40
2023-08-14T16:49:32.302Z,69.57
2023-08-14T16:51:58.663Z,69.59
2023-08-14T16:54:25.045Z,70.89
2023-08-14T16:56:51.426Z,70.63
2023-08-14T16:59:17.950Z,71.54
2023-08-14T17:01:44.344Z,72.78
2023-08-14T17:04:10.828Z,71.83
2023-08-14T17:06:37.229Z,72.97
2023-08-14T17:09:05.269Z,71.91
2023-08-14T17:11:31.635Z,72.85
2023-08-14T17:13:58.062Z,73.73
2023-08-14T17:16:24.665Z,74.05
2023-08-14T17:18:51.118Z,74.27
2023-08-14T17:21:17.468Z,73.22
2023-08-14T17:23:43.849Z,72.54
2023-08-14T17:26:10.205Z,72.52
2023-08-14T17:28:36.566Z,72.15
2023-08-14T17:31:02.976Z,72.36
2023-08-14T17:33:29.384Z,72.81
2023-08-14T17:35:55.829Z,73.08
2023-08-14T17:38:22.209Z,73.94
2023-08-14T17:40:49.087Z,74.70
2023-08-14T17:43:15.469Z,74.68
2023-08-14T17:45:42.071Z,73.90
2023-08-14T17:48:08.495Z,73.33
2023-08-14T17:50:34.881Z,72.66
2023-08-14T17:53:01.255Z,72.67
2023-08-14T17:55:27.599Z,73.08
2023-08-14T17:57:53.971Z,72.33
2023-08-14T18:00:20.336Z,73.03
2023-08-14T18:02:46.814Z,73.01
2023-08-14T18:05:13.229Z,72.36
2023-08-14T18:07:39.642Z,72.30
2023-08-14T18:10:06.240Z,72.11
2023-08-14T18:12:32.619Z,71.80
2023-08-14T18:14:58.961Z,71.88
2023-08-14T18:17:25.367Z,71.53
2023-08-14T18:19:51.947Z,71.34
2023-08-14T18:22:18.993Z,71.52
2023-08-14T18:24:45.415Z,72.09
2023-08-14T18:27:11.913Z,71.25
2023-08-14T18:29:38.275Z,71.88
2023-08-14T18:32:18.520Z,71.63
2023-08-14T18:34:45.542Z,72.79
2023-08-14T18:37:12.024Z,73.19
2023-08-14T18:39:38.470Z,72.76
2023-08-14T18:42:06.449Z,73.24
2023-08-14T18:44:32.832Z,72.75
2023-08-14T18:46:59.381Z,72.62
2023-08-14T18:49:25.840Z,72.51
2023-08-14T18:51:52.205Z,72.43
2023-08-14T18:54:19.377Z,72.53
2023-08-14T18:56:45.812Z,72.41
2023-08-14T18:59:12.916Z,72.01
2023-08-14T19:01:39.345Z,71.66
2023-08-14T19:04:05.822Z,71.86
2023-08-14T19:06:32.506Z,71.46
2023-08-14T19:08:58.923Z,71.18
2023-08-14T19:11:25.349Z,71.22
2023-08-14T19:13:51.718Z,71.26
2023-08-14T19:16:18.106Z,71.15
2023-08-14T19:18:44.626Z,70.87
2023-08-14T19:21:11.003Z,70.69
2023-08-14T19:23:37.434Z,71.01
2023-08-14T19:26:15.021Z,70.51
2023-08-14T19:28:49.061Z,70.59
2023-08-14T19:31:15.505Z,70.26
2023-08-14T19:33:42.815Z,70.60
2023-08-14T19:36:09.285Z,70.72
2023-08-14T19:38:35.724Z,70.58
2023-08-14T19:41:02.183Z,70.53
2023-08-14T19:43:28.563Z,70.17
2023-08-14T19:45:54.984Z,70.41
2023-08-14T19:48:21.427Z,70.46
2023-08-14T19:50:47.863Z,70.25
2023-08-14T19:53:14.392Z,70.47
2023-08-14T19:55:40.967Z,70.56
2023-08-14T19:58:07.350Z,70.46
2023-08-14T20:00:33.732Z,70.22
2023-08-14T20:03:00.201Z,70.45
2023-08-14T20:05:26.779Z,70.55
2023-08-14T20:07:53.186Z,70.40
2023-08-14T20:10:19.540Z,70.29
2023-08-14T20:12:45.971Z,70.33
2023-08-14T20:15:12.352Z,70.02
2023-08-14T20:17:38.814Z,70.42
2023-08-14T20:20:05.832Z,70.52
2023-08-14T20:22:32.187Z,70.12
2023-08-14T20:25:00.949Z,70.51
2023-08-14T20:27:27.318Z,70.27
2023-08-14T20:29:53.995Z,70.21
2023-08-14T20:32:20.447Z,70.42
2023-08-14T20:34:46.822Z,70.46
2023-08-14T20:37:13.174Z,70.63
2023-08-14T20:39:39.706Z,70.41
2023-08-14T20:42:06.195Z,70.22
2023-08-14T20:44:32.606Z,70.09
2023-08-14T20:46:58.960Z,70.70
2023-08-14T20:49:29.465Z,70.29
2023-08-14T20:51:55.834Z,70.63
2023-08-14T20:54:22.551Z,70.17
2023-08-14T20:56:48.901Z,70.12
2023-08-14T20:59:15.265Z,69.25
2023-08-14T21:01:41.702Z,69.29
2023-08-14T21:04:08.183Z,69.33
2023-08-14T21:06:34.560Z,69.15
2023-08-14T21:09:01.040Z,69.37
2023-08-14T21:11:27.403Z,69.29
2023-08-14T21:13:53.792Z,69.23
2023-08-14T21:16:20.200Z,69.22
2023-08-14T21:18:46.888Z,68.79
2023-08-14T21:21:13.284Z,69.04
2023-08-14T21:23:39.684Z,68.64
2023-08-14T21:26:06.119Z,68.73
2023-08-14T21:28:32.488Z,68.53
2023-08-14T21:30:59.660Z,68.87
2023-08-14T21:33:26.459Z,68.93
2023-08-14T21:35:52.921Z,68.91
2023-08-14T21:38:19.291Z,68.66
2023-08-14T21:40:45.656Z,68.86
2023-08-14T21:43:12.016Z,68.95
2023-08-14T21:45:40.990Z,68.44
2023-08-14T21:48:07.703Z,68.85
2023-08-14T21:50:40.181Z,68.52
2023-08-14T21:53:06.537Z,68.53
2023-08-14T21:55:33.007Z,68.78
2023-08-14T21:57:59.380Z,68.46
2023-08-14T22:00:25.743Z,68.53
2023-08-14T22:02:52.425Z,68.63
2023-08-14T22:05:18.828Z,68.65
2023-08-14T22:07:45.181Z,68.69
2023-08-14T22:10:12.720Z,68.70
2023-08-14T22:12:39.250Z,68.25
2023-08-14T22:15:06.188Z,68.18
2023-08-14T22:17:32.624Z,68.50
2023-08-14T22:19:59.020Z,68.56
2023-08-14T22:22:25.444Z,68.53
2023-08-14T22:24:51.827Z,68.48
2023-08-14T22:27:18.399Z,68.35
2023-08-14T22:29:45.164Z,68.17
2023-08-14T22:32:11.534Z,68.20
2023-08-14T22:34:38.218Z,68.43
2023-08-14T22:37:04.601Z,68.34
2023-08-14T22:39:31.927Z,68.13
2023-08-14T22:41:58.637Z,68.22
2023-08-14T22:44:25.031Z,68.40
2023-08-14T22:46:51.396Z,68.74
2023-08-14T22:49:17.759Z,68.48
2023-08-14T22:51:44.377Z,68.38
2023-08-14T22:54:10.723Z,68.49
2023-08-14T22:56:37.780Z,68.54
2023-08-14T22:59:04.132Z,68.44
2023-08-14T23:01:30.590Z,68.27
2023-08-14T23:03:57.092Z,68.26
2023-08-14T23:06:23.493Z,68.27
2023-08-14T23:08:49.865Z,68.08
2023-08-14T23:11:16.385Z,68.22
2023-08-14T23:13:42.728Z,68.22
2023-08-14T23:16:09.530Z,68.28
2023-08-14T23:18:35.946Z,67.94
2023-08-14T23:21:02.308Z,68.20
2023-08-14T23:23:28.700Z,67.88
2023-08-14T23:25:55.078Z,68.26
2023-08-14T23:28:21.470Z,67.94
2023-08-14T23:30:49.908Z,68.04
2023-08-14T23:33:16.319Z,68.14
2023-08-14T23:35:42.689Z,68.01
2023-08-14T23:38:09.051Z,68.11
2023-08-14T23:40:35.407Z,68.17
2023-08-14T23:43:01.800Z,67.97
2023-08-14T23:45:28.158Z,68.11
2023-08-14T23:47:54.577Z,68.17
2023-08-14T23:50:20.961Z,68.17
2023-08-14T23:52:47.537Z,68.23
2023-08-14T23:55:14.012Z,68.03
2023-08-14T23:57:40.368Z,68.07
